sensor_id;sensor_type;location;lat;lon;timestamp;temperature;humidity
39189;DHT22;24915;50.858;4.376;2022-12-29T00:01:40;11.80;99.90
39189;DHT22;24915;50.858;4.376;2022-12-29T00:04:06;11.80;99.90
39189;DHT22;24915;50.858;4.376;2022-12-29T00:06:32;11.80;99.90
39189;DHT22;24915;50.858;4.376;2022-12-29T00:08:58;11.90;99.90
39189;DHT22;24915;50.858;4.376;2022-12-29T00:11:25;11.90;99.90
39189;DHT22;24915;50.858;4.376;2022-12-29T00:13:52;11.90;99.90
39189;DHT22;24915;50.858;4.376;2022-12-29T00:16:41;11.90;99.90
39189;DHT22;24915;50.858;4.376;2022-12-29T00:19:08;11.90;99.90
39189;DHT22;24915;50.858;4.376;2022-12-29T00:21:54;11.90;99.90
39189;DHT22;24915;50.858;4.376;2022-12-29T00:24:38;12.00;99.90
39189;DHT22;24915;50.858;4.376;2022-12-29T00:27:19;12.10;99.90
39189;DHT22;24915;50.858;4.376;2022-12-29T00:30:09;12.10;99.90
39189;DHT22;24915;50.858;4.376;2022-12-29T00:32:53;12.10;99.90
39189;DHT22;24915;50.858;4.376;2022-12-29T00:35:43;12.20;99.90
39189;DHT22;24915;50.858;4.376;2022-12-29T00:38:10;12.10;99.90
39189;DHT22;24915;50.858;4.376;2022-12-29T00:40:55;12.20;99.90
39189;DHT22;24915;50.858;4.376;2022-12-29T00:43:39;12.20;99.90
39189;DHT22;24915;50.858;4.376;2022-12-29T00:46:23;12.30;99.90
39189;DHT22;24915;50.858;4.376;2022-12-29T00:48:49;12.20;99.90
39189;DHT22;24915;50.858;4.376;2022-12-29T00:51:33;12.20;99.90
39189;DHT22;24915;50.858;4.376;2022-12-29T00:53:58;12.20;99.90
39189;DHT22;24915;50.858;4.376;2022-12-29T00:56:24;12.20;99.90
39189;DHT22;24915;50.858;4.376;2022-12-29T00:58:50;12.20;99.90
39189;DHT22;24915;50.858;4.376;2022-12-29T01:01:15;12.20;99.90
39189;DHT22;24915;50.858;4.376;2022-12-29T01:03:41;12.30;99.90
39189;DHT22;24915;50.858;4.376;2022-12-29T01:06:08;12.30;99.90
39189;DHT22;24915;50.858;4.376;2022-12-29T01:08:35;12.20;99.90
39189;DHT22;24915;50.858;4.376;2022-12-29T01:11:03;12.20;99.90
39189;DHT22;24915;50.858;4.376;2022-12-29T01:13:29;12.20;99.90
39189;DHT22;24915;50.858;4.376;2022-12-29T01:15:55;12.20;99.90
39189;DHT22;24915;50.858;4.376;2022-12-29T01:18:21;12.20;99.90
39189;DHT22;24915;50.858;4.376;2022-12-29T01:20:48;12.00;99.90
39189;DHT22;24915;50.858;4.376;2022-12-29T01:23:14;11.90;99.90
39189;DHT22;24915;50.858;4.376;2022-12-29T01:25:39;11.80;99.90
39189;DHT22;24915;50.858;4.376;2022-12-29T01:28:06;11.70;99.90
39189;DHT22;24915;50.858;4.376;2022-12-29T01:30:34;11.70;99.90
39189;DHT22;24915;50.858;4.376;2022-12-29T01:33:00;11.60;99.90
39189;DHT22;24915;50.858;4.376;2022-12-29T01:35:25;11.50;99.90
39189;DHT22;24915;50.858;4.376;2022-12-29T01:37:51;11.40;99.90
39189;DHT22;24915;50.858;4.376;2022-12-29T01:40:17;11.30;99.90
39189;DHT22;24915;50.858;4.376;2022-12-29T01:42:42;11.30;99.90
39189;DHT22;24915;50.858;4.376;2022-12-29T01:45:09;11.30;99.90
39189;DHT22;24915;50.858;4.376;2022-12-29T01:47:39;11.30;99.90
39189;DHT22;24915;50.858;4.376;2022-12-29T01:50:14;11.30;99.90
39189;DHT22;24915;50.858;4.376;2022-12-29T01:53:00;11.30;99.90
39189;DHT22;24915;50.858;4.376;2022-12-29T01:55:32;11.30;99.90
39189;DHT22;24915;50.858;4.376;2022-12-29T01:58:02;11.30;99.90
39189;DHT22;24915;50.858;4.376;2022-12-29T02:00:29;11.30;99.90
39189;DHT22;24915;50.858;4.376;2022-12-29T02:02:54;11.30;99.90
39189;DHT22;24915;50.858;4.376;2022-12-29T02:05:28;11.30;99.90
39189;DHT22;24915;50.858;4.376;2022-12-29T02:07:55;11.40;99.90
39189;DHT22;24915;50.858;4.376;2022-12-29T02:10:24;11.40;99.90
39189;DHT22;24915;50.858;4.376;2022-12-29T02:12:51;11.30;99.90
39189;DHT22;24915;50.858;4.376;2022-12-29T02:15:17;11.20;99.90
39189;DHT22;24915;50.858;4.376;2022-12-29T02:18:09;11.20;99.90
39189;DHT22;24915;50.858;4.376;2022-12-29T02:29:17;9.80;99.90
39189;DHT22;24915;50.858;4.376;2022-12-29T02:43:04;9.60;99.90
39189;DHT22;24915;50.858;4.376;2022-12-29T02:51:02;9.50;99.90
39189;DHT22;24915;50.858;4.376;2022-12-29T02:53:30;9.50;99.90
39189;DHT22;24915;50.858;4.376;2022-12-29T02:56:16;9.50;99.90
39189;DHT22;24915;50.858;4.376;2022-12-29T02:58:41;9.50;99.90
39189;DHT22;24915;50.858;4.376;2022-12-29T03:06:29;9.50;99.90
39189;DHT22;24915;50.858;4.376;2022-12-29T03:09:21;9.50;99.90
39189;DHT22;24915;50.858;4.376;2022-12-29T03:11:59;9.40;99.90
39189;DHT22;24915;50.858;4.376;2022-12-29T03:15:01;9.30;99.90
39189;DHT22;24915;50.858;4.376;2022-12-29T03:17:54;9.10;99.90
39189;DHT22;24915;50.858;4.376;2022-12-29T03:20:25;9.10;99.90
39189;DHT22;24915;50.858;4.376;2022-12-29T03:22:55;9.10;99.90
39189;DHT22;24915;50.858;4.376;2022-12-29T03:25:27;9.10;99.90
39189;DHT22;24915;50.858;4.376;2022-12-29T03:28:06;9.10;99.90
39189;DHT22;24915;50.858;4.376;2022-12-29T03:30:34;9.10;99.90
39189;DHT22;24915;50.858;4.376;2022-12-29T03:33:07;9.20;99.90
39189;DHT22;24915;50.858;4.376;2022-12-29T03:35:37;9.30;99.90
39189;DHT22;24915;50.858;4.376;2022-12-29T03:38:21;9.40;99.90
39189;DHT22;24915;50.858;4.376;2022-12-29T03:40:52;9.50;99.90
39189;DHT22;24915;50.858;4.376;2022-12-29T03:43:18;9.50;99.90
39189;DHT22;24915;50.858;4.376;2022-12-29T03:45:44;9.60;99.90
39189;DHT22;24915;50.858;4.376;2022-12-29T03:48:10;9.60;99.90
39189;DHT22;24915;50.858;4.376;2022-12-29T03:50:36;9.70;99.90
39189;DHT22;24915;50.858;4.376;2022-12-29T03:53:01;9.70;99.90
39189;DHT22;24915;50.858;4.376;2022-12-29T03:55:27;9.70;99.90
39189;DHT22;24915;50.858;4.376;2022-12-29T03:57:52;9.70;99.90
39189;DHT22;24915;50.858;4.376;2022-12-29T04:00:18;9.70;99.90
39189;DHT22;24915;50.858;4.376;2022-12-29T04:02:44;9.70;99.90
39189;DHT22;24915;50.858;4.376;2022-12-29T04:05:09;9.70;99.90
39189;DHT22;24915;50.858;4.376;2022-12-29T04:07:35;9.60;99.90
39189;DHT22;24915;50.858;4.376;2022-12-29T04:10:01;9.60;99.90
39189;DHT22;24915;50.858;4.376;2022-12-29T04:12:26;9.60;99.90
39189;DHT22;24915;50.858;4.376;2022-12-29T04:14:52;9.60;99.90
39189;DHT22;24915;50.858;4.376;2022-12-29T04:17:17;9.50;99.90
39189;DHT22;24915;50.858;4.376;2022-12-29T04:19:43;9.50;99.90
39189;DHT22;24915;50.858;4.376;2022-12-29T04:22:09;9.50;99.90
39189;DHT22;24915;50.858;4.376;2022-12-29T04:24:34;9.50;99.90
39189;DHT22;24915;50.858;4.376;2022-12-29T04:27:00;9.50;99.90
39189;DHT22;24915;50.858;4.376;2022-12-29T04:29:26;9.50;99.90
39189;DHT22;24915;50.858;4.376;2022-12-29T04:31:51;9.50;99.90
39189;DHT22;24915;50.858;4.376;2022-12-29T04:34:17;9.50;99.90
39189;DHT22;24915;50.858;4.376;2022-12-29T04:36:42;9.50;99.90
39189;DHT22;24915;50.858;4.376;2022-12-29T04:39:08;9.50;99.90
39189;DHT22;24915;50.858;4.376;2022-12-29T04:41:34;9.50;99.90
39189;DHT22;24915;50.858;4.376;2022-12-29T04:43:59;9.50;99.90
39189;DHT22;24915;50.858;4.376;2022-12-29T04:46:25;9.60;99.90
39189;DHT22;24915;50.858;4.376;2022-12-29T04:48:51;9.70;99.90
39189;DHT22;24915;50.858;4.376;2022-12-29T04:51:16;9.60;99.90
39189;DHT22;24915;50.858;4.376;2022-12-29T04:53:42;9.70;99.90
39189;DHT22;24915;50.858;4.376;2022-12-29T04:56:08;9.80;99.90
39189;DHT22;24915;50.858;4.376;2022-12-29T04:58:35;9.80;99.90
39189;DHT22;24915;50.858;4.376;2022-12-29T05:01:01;9.90;99.90
39189;DHT22;24915;50.858;4.376;2022-12-29T05:03:27;9.90;99.90
39189;DHT22;24915;50.858;4.376;2022-12-29T05:05:56;9.90;99.90
39189;DHT22;24915;50.858;4.376;2022-12-29T05:08:23;9.90;99.90
39189;DHT22;24915;50.858;4.376;2022-12-29T05:10:51;9.90;99.90
39189;DHT22;24915;50.858;4.376;2022-12-29T05:13:17;9.90;99.90
39189;DHT22;24915;50.858;4.376;2022-12-29T05:15:51;9.90;99.90
39189;DHT22;24915;50.858;4.376;2022-12-29T05:18:17;9.90;99.90
39189;DHT22;24915;50.858;4.376;2022-12-29T05:20:44;10.00;99.90
39189;DHT22;24915;50.858;4.376;2022-12-29T05:23:10;9.90;99.90
39189;DHT22;24915;50.858;4.376;2022-12-29T05:25:35;10.00;99.90
39189;DHT22;24915;50.858;4.376;2022-12-29T05:28:01;10.00;99.90
39189;DHT22;24915;50.858;4.376;2022-12-29T05:30:27;10.00;99.90
39189;DHT22;24915;50.858;4.376;2022-12-29T05:32:52;10.00;99.90
39189;DHT22;24915;50.858;4.376;2022-12-29T05:35:18;10.10;99.90
39189;DHT22;24915;50.858;4.376;2022-12-29T05:37:44;10.00;99.90
39189;DHT22;24915;50.858;4.376;2022-12-29T05:40:10;10.00;99.90
39189;DHT22;24915;50.858;4.376;2022-12-29T05:42:36;10.00;99.90
39189;DHT22;24915;50.858;4.376;2022-12-29T05:45:01;10.00;99.90
39189;DHT22;24915;50.858;4.376;2022-12-29T05:47:27;10.00;99.90
39189;DHT22;24915;50.858;4.376;2022-12-29T05:49:53;10.10;99.90
39189;DHT22;24915;50.858;4.376;2022-12-29T05:52:18;10.10;99.90
39189;DHT22;24915;50.858;4.376;2022-12-29T05:54:44;10.10;99.90
39189;DHT22;24915;50.858;4.376;2022-12-29T05:57:09;10.10;99.90
39189;DHT22;24915;50.858;4.376;2022-12-29T05:59:35;10.00;99.90
39189;DHT22;24915;50.858;4.376;2022-12-29T06:02:01;10.00;99.90
39189;DHT22;24915;50.858;4.376;2022-12-29T06:04:26;9.90;99.90
39189;DHT22;24915;50.858;4.376;2022-12-29T06:06:52;10.00;99.90
39189;DHT22;24915;50.858;4.376;2022-12-29T06:09:17;10.00;99.90
39189;DHT22;24915;50.858;4.376;2022-12-29T06:11:43;10.00;99.90
39189;DHT22;24915;50.858;4.376;2022-12-29T06:14:09;10.00;99.90
39189;DHT22;24915;50.858;4.376;2022-12-29T06:16:34;9.90;99.90
39189;DHT22;24915;50.858;4.376;2022-12-29T06:19:01;9.90;99.90
39189;DHT22;24915;50.858;4.376;2022-12-29T06:21:26;9.90;99.90
39189;DHT22;24915;50.858;4.376;2022-12-29T06:23:52;9.90;99.90
39189;DHT22;24915;50.858;4.376;2022-12-29T06:26:18;9.90;99.90
39189;DHT22;24915;50.858;4.376;2022-12-29T06:28:43;9.90;99.90
39189;DHT22;24915;50.858;4.376;2022-12-29T06:31:10;9.80;99.90
39189;DHT22;24915;50.858;4.376;2022-12-29T06:33:37;9.80;99.90
39189;DHT22;24915;50.858;4.376;2022-12-29T06:36:03;9.80;99.90
39189;DHT22;24915;50.858;4.376;2022-12-29T06:38:29;9.80;99.90
39189;DHT22;24915;50.858;4.376;2022-12-29T06:40:54;9.80;99.90
39189;DHT22;24915;50.858;4.376;2022-12-29T06:43:20;9.80;99.90
39189;DHT22;24915;50.858;4.376;2022-12-29T06:45:45;9.80;99.90
39189;DHT22;24915;50.858;4.376;2022-12-29T06:48:11;9.90;99.90
39189;DHT22;24915;50.858;4.376;2022-12-29T06:50:37;9.90;99.90
39189;DHT22;24915;50.858;4.376;2022-12-29T06:53:03;10.00;99.90
39189;DHT22;24915;50.858;4.376;2022-12-29T06:55:29;9.90;99.90
39189;DHT22;24915;50.858;4.376;2022-12-29T06:57:58;9.90;99.90
39189;DHT22;24915;50.858;4.376;2022-12-29T07:00:25;9.90;99.90
39189;DHT22;24915;50.858;4.376;2022-12-29T07:02:51;10.00;99.90
39189;DHT22;24915;50.858;4.376;2022-12-29T07:05:16;10.00;99.90
39189;DHT22;24915;50.858;4.376;2022-12-29T07:07:42;9.90;99.90
39189;DHT22;24915;50.858;4.376;2022-12-29T07:10:08;10.00;99.90
39189;DHT22;24915;50.858;4.376;2022-12-29T07:12:34;9.90;99.90
39189;DHT22;24915;50.858;4.376;2022-12-29T07:14:59;9.90;99.90
39189;DHT22;24915;50.858;4.376;2022-12-29T07:17:25;9.90;99.90
39189;DHT22;24915;50.858;4.376;2022-12-29T07:19:50;9.90;99.90
39189;DHT22;24915;50.858;4.376;2022-12-29T07:22:16;9.90;99.90
39189;DHT22;24915;50.858;4.376;2022-12-29T07:24:42;9.90;99.90
39189;DHT22;24915;50.858;4.376;2022-12-29T07:27:09;9.90;99.90
39189;DHT22;24915;50.858;4.376;2022-12-29T07:29:37;10.00;99.90
39189;DHT22;24915;50.858;4.376;2022-12-29T07:32:03;10.00;99.90
39189;DHT22;24915;50.858;4.376;2022-12-29T07:34:28;10.00;99.90
39189;DHT22;24915;50.858;4.376;2022-12-29T07:36:54;10.00;99.90
39189;DHT22;24915;50.858;4.376;2022-12-29T07:39:20;10.00;99.90
39189;DHT22;24915;50.858;4.376;2022-12-29T07:41:45;10.10;99.90
39189;DHT22;24915;50.858;4.376;2022-12-29T07:44:11;10.10;99.90
39189;DHT22;24915;50.858;4.376;2022-12-29T07:46:37;10.10;99.90
39189;DHT22;24915;50.858;4.376;2022-12-29T07:49:02;10.10;99.90
39189;DHT22;24915;50.858;4.376;2022-12-29T07:51:28;10.10;99.90
39189;DHT22;24915;50.858;4.376;2022-12-29T07:53:54;10.10;99.90
39189;DHT22;24915;50.858;4.376;2022-12-29T07:56:19;10.10;99.90
39189;DHT22;24915;50.858;4.376;2022-12-29T07:58:45;10.10;99.90
39189;DHT22;24915;50.858;4.376;2022-12-29T08:01:11;10.10;99.90
39189;DHT22;24915;50.858;4.376;2022-12-29T08:03:36;10.30;99.90
39189;DHT22;24915;50.858;4.376;2022-12-29T08:06:02;10.30;99.90
39189;DHT22;24915;50.858;4.376;2022-12-29T08:08:28;10.30;99.90
39189;DHT22;24915;50.858;4.376;2022-12-29T08:10:54;10.30;99.90
39189;DHT22;24915;50.858;4.376;2022-12-29T08:13:19;10.40;99.90
39189;DHT22;24915;50.858;4.376;2022-12-29T08:15:45;10.50;99.90
39189;DHT22;24915;50.858;4.376;2022-12-29T08:18:11;10.50;99.90
39189;DHT22;24915;50.858;4.376;2022-12-29T08:20:36;10.50;99.90
39189;DHT22;24915;50.858;4.376;2022-12-29T08:23:02;10.60;99.90
39189;DHT22;24915;50.858;4.376;2022-12-29T08:25:28;10.60;99.90
39189;DHT22;24915;50.858;4.376;2022-12-29T08:27:53;10.60;99.90
39189;DHT22;24915;50.858;4.376;2022-12-29T08:30:19;10.60;99.90
39189;DHT22;24915;50.858;4.376;2022-12-29T08:32:45;10.70;99.90
39189;DHT22;24915;50.858;4.376;2022-12-29T08:35:10;10.70;99.90
39189;DHT22;24915;50.858;4.376;2022-12-29T08:37:36;10.70;99.90
39189;DHT22;24915;50.858;4.376;2022-12-29T08:40:02;10.70;99.90
39189;DHT22;24915;50.858;4.376;2022-12-29T08:42:30;10.70;99.90
39189;DHT22;24915;50.858;4.376;2022-12-29T08:45:00;10.70;99.90
39189;DHT22;24915;50.858;4.376;2022-12-29T08:47:26;10.70;99.90
39189;DHT22;24915;50.858;4.376;2022-12-29T08:49:52;10.70;99.90
39189;DHT22;24915;50.858;4.376;2022-12-29T08:52:18;10.70;99.90
39189;DHT22;24915;50.858;4.376;2022-12-29T08:54:44;10.80;99.90
39189;DHT22;24915;50.858;4.376;2022-12-29T08:57:10;10.80;99.90
39189;DHT22;24915;50.858;4.376;2022-12-29T08:59:35;10.80;99.90
39189;DHT22;24915;50.858;4.376;2022-12-29T09:02:01;10.80;99.90
39189;DHT22;24915;50.858;4.376;2022-12-29T09:04:27;10.80;99.90
39189;DHT22;24915;50.858;4.376;2022-12-29T09:06:53;10.50;99.90
39189;DHT22;24915;50.858;4.376;2022-12-29T09:09:19;10.50;99.90
39189;DHT22;24915;50.858;4.376;2022-12-29T09:11:45;10.50;99.90
39189;DHT22;24915;50.858;4.376;2022-12-29T09:14:11;10.50;99.90
39189;DHT22;24915;50.858;4.376;2022-12-29T09:16:37;10.60;99.90
39189;DHT22;24915;50.858;4.376;2022-12-29T09:19:04;10.60;99.90
39189;DHT22;24915;50.858;4.376;2022-12-29T09:21:30;10.60;99.90
39189;DHT22;24915;50.858;4.376;2022-12-29T09:23:55;10.60;99.90
39189;DHT22;24915;50.858;4.376;2022-12-29T09:26:21;10.60;99.90
39189;DHT22;24915;50.858;4.376;2022-12-29T09:28:47;10.50;99.90
39189;DHT22;24915;50.858;4.376;2022-12-29T09:31:13;10.30;99.90
39189;DHT22;24915;50.858;4.376;2022-12-29T09:33:39;10.10;99.90
39189;DHT22;24915;50.858;4.376;2022-12-29T09:36:05;10.00;99.90
39189;DHT22;24915;50.858;4.376;2022-12-29T09:38:31;10.00;99.90
39189;DHT22;24915;50.858;4.376;2022-12-29T09:41:10;10.10;99.90
39189;DHT22;24915;50.858;4.376;2022-12-29T09:46:28;10.20;99.90
39189;DHT22;24915;50.858;4.376;2022-12-29T09:49:28;10.30;99.90
39189;DHT22;24915;50.858;4.376;2022-12-29T09:52:01;10.20;99.90
39189;DHT22;24915;50.858;4.376;2022-12-29T09:54:56;10.20;99.90
39189;DHT22;24915;50.858;4.376;2022-12-29T09:57:31;10.30;99.90
39189;DHT22;24915;50.858;4.376;2022-12-29T10:00:13;10.40;99.90
39189;DHT22;24915;50.858;4.376;2022-12-29T10:03:00;10.50;99.90
39189;DHT22;24915;50.858;4.376;2022-12-29T10:13:29;10.60;99.90
39189;DHT22;24915;50.858;4.376;2022-12-29T10:18:37;10.60;99.90
39189;DHT22;24915;50.858;4.376;2022-12-29T10:23:42;10.60;99.90
39189;DHT22;24915;50.858;4.376;2022-12-29T10:26:21;10.60;99.90
39189;DHT22;24915;50.858;4.376;2022-12-29T10:29:04;10.60;99.90
39189;DHT22;24915;50.858;4.376;2022-12-29T10:31:40;10.70;99.90
39189;DHT22;24915;50.858;4.376;2022-12-29T10:34:42;10.70;99.90
39189;DHT22;24915;50.858;4.376;2022-12-29T10:37:18;10.70;99.90
39189;DHT22;24915;50.858;4.376;2022-12-29T10:39:52;10.80;99.90
39189;DHT22;24915;50.858;4.376;2022-12-29T10:44:46;10.80;99.90
39189;DHT22;24915;50.858;4.376;2022-12-29T10:47:16;10.80;99.90
39189;DHT22;24915;50.858;4.376;2022-12-29T10:49:45;10.80;99.90
39189;DHT22;24915;50.858;4.376;2022-12-29T10:52:14;10.80;99.90
39189;DHT22;24915;50.858;4.376;2022-12-29T10:57:32;10.90;99.90
39189;DHT22;24915;50.858;4.376;2022-12-29T10:59:59;10.90;99.90
39189;DHT22;24915;50.858;4.376;2022-12-29T11:07:36;11.00;99.90
39189;DHT22;24915;50.858;4.376;2022-12-29T11:10:35;11.00;99.90
39189;DHT22;24915;50.858;4.376;2022-12-29T11:15:47;11.10;99.90
39189;DHT22;24915;50.858;4.376;2022-12-29T11:18:23;11.10;99.90
39189;DHT22;24915;50.858;4.376;2022-12-29T11:20:54;11.20;99.90
39189;DHT22;24915;50.858;4.376;2022-12-29T11:28:40;11.50;99.90
39189;DHT22;24915;50.858;4.376;2022-12-29T11:31:08;11.40;99.90
39189;DHT22;24915;50.858;4.376;2022-12-29T11:33:36;11.30;99.90
39189;DHT22;24915;50.858;4.376;2022-12-29T11:36:06;11.20;99.90
39189;DHT22;24915;50.858;4.376;2022-12-29T11:38:39;11.20;99.90
39189;DHT22;24915;50.858;4.376;2022-12-29T11:41:06;11.00;99.90
39189;DHT22;24915;50.858;4.376;2022-12-29T11:43:41;10.90;99.90
39189;DHT22;24915;50.858;4.376;2022-12-29T11:46:17;10.80;99.90
39189;DHT22;24915;50.858;4.376;2022-12-29T11:48:44;10.70;99.90
39189;DHT22;24915;50.858;4.376;2022-12-29T11:51:11;10.70;99.90
39189;DHT22;24915;50.858;4.376;2022-12-29T11:53:49;10.60;99.90
39189;DHT22;24915;50.858;4.376;2022-12-29T11:56:32;10.60;99.90
39189;DHT22;24915;50.858;4.376;2022-12-29T11:58:58;10.60;99.90
39189;DHT22;24915;50.858;4.376;2022-12-29T12:01:45;10.60;99.90
39189;DHT22;24915;50.858;4.376;2022-12-29T12:04:17;10.60;99.90
39189;DHT22;24915;50.858;4.376;2022-12-29T12:09:32;10.60;99.90
39189;DHT22;24915;50.858;4.376;2022-12-29T12:11:59;10.60;99.90
39189;DHT22;24915;50.858;4.376;2022-12-29T12:14:36;10.60;99.90
39189;DHT22;24915;50.858;4.376;2022-12-29T12:17:12;10.60;99.90
39189;DHT22;24915;50.858;4.376;2022-12-29T12:19:47;10.50;99.90
39189;DHT22;24915;50.858;4.376;2022-12-29T12:22:37;10.60;99.90
39189;DHT22;24915;50.858;4.376;2022-12-29T12:27:48;10.50;99.90
39189;DHT22;24915;50.858;4.376;2022-12-29T12:30:15;10.40;99.90
39189;DHT22;24915;50.858;4.376;2022-12-29T12:38:57;10.40;99.90
39189;DHT22;24915;50.858;4.376;2022-12-29T12:52:37;10.50;99.90
39189;DHT22;24915;50.858;4.376;2022-12-29T12:56:22;10.50;99.90
39189;DHT22;24915;50.858;4.376;2022-12-29T13:06:41;10.60;99.90
39189;DHT22;24915;50.858;4.376;2022-12-29T13:09:42;10.60;99.90
39189;DHT22;24915;50.858;4.376;2022-12-29T13:12:16;10.50;99.90
39189;DHT22;24915;50.858;4.376;2022-12-29T13:17:33;10.60;99.90
39189;DHT22;24915;50.858;4.376;2022-12-29T13:25:51;10.60;99.90
39189;DHT22;24915;50.858;4.376;2022-12-29T13:28:32;10.60;99.90
39189;DHT22;24915;50.858;4.376;2022-12-29T13:41:49;10.50;99.90
39189;DHT22;24915;50.858;4.376;2022-12-29T13:44:20;10.50;99.90
39189;DHT22;24915;50.858;4.376;2022-12-29T13:46:47;10.60;99.90
39189;DHT22;24915;50.858;4.376;2022-12-29T13:49:18;11.00;99.90
39189;DHT22;24915;50.858;4.376;2022-12-29T13:51:55;11.40;99.90
39189;DHT22;24915;50.858;4.376;2022-12-29T13:56:52;11.30;99.90
39189;DHT22;24915;50.858;4.376;2022-12-29T14:02:31;11.00;99.90
39189;DHT22;24915;50.858;4.376;2022-12-29T14:07:49;10.70;99.90
39189;DHT22;24915;50.858;4.376;2022-12-29T14:10:45;10.70;99.90
39189;DHT22;24915;50.858;4.376;2022-12-29T14:13:15;10.70;99.90
39189;DHT22;24915;50.858;4.376;2022-12-29T14:15:50;10.70;99.90
39189;DHT22;24915;50.858;4.376;2022-12-29T14:18:18;10.60;99.90
39189;DHT22;24915;50.858;4.376;2022-12-29T14:21:00;10.60;99.90
39189;DHT22;24915;50.858;4.376;2022-12-29T14:28:28;10.50;99.90
39189;DHT22;24915;50.858;4.376;2022-12-29T14:30:56;10.50;99.90
39189;DHT22;24915;50.858;4.376;2022-12-29T14:33:23;10.50;99.90
39189;DHT22;24915;50.858;4.376;2022-12-29T14:35:52;10.60;99.90
39189;DHT22;24915;50.858;4.376;2022-12-29T14:38:24;10.60;99.90
39189;DHT22;24915;50.858;4.376;2022-12-29T14:40:50;10.60;99.90
39189;DHT22;24915;50.858;4.376;2022-12-29T14:43:26;10.60;99.90
39189;DHT22;24915;50.858;4.376;2022-12-29T14:45:59;10.60;99.90
39189;DHT22;24915;50.858;4.376;2022-12-29T14:50:55;10.20;99.90
39189;DHT22;24915;50.858;4.376;2022-12-29T14:53:47;10.00;99.90
39189;DHT22;24915;50.858;4.376;2022-12-29T14:56:16;9.80;99.90
39189;DHT22;24915;50.858;4.376;2022-12-29T14:58:49;9.70;99.90
39189;DHT22;24915;50.858;4.376;2022-12-29T15:01:20;9.60;99.90
39189;DHT22;24915;50.858;4.376;2022-12-29T15:03:54;9.50;99.90
39189;DHT22;24915;50.858;4.376;2022-12-29T15:06:23;9.40;99.90
39189;DHT22;24915;50.858;4.376;2022-12-29T15:09:20;9.30;99.90
39189;DHT22;24915;50.858;4.376;2022-12-29T15:11:54;9.20;99.90
39189;DHT22;24915;50.858;4.376;2022-12-29T15:14:33;9.20;99.90
39189;DHT22;24915;50.858;4.376;2022-12-29T15:17:00;9.10;99.90
39189;DHT22;24915;50.858;4.376;2022-12-29T15:19:27;9.00;99.90
39189;DHT22;24915;50.858;4.376;2022-12-29T15:21:54;8.90;99.90
39189;DHT22;24915;50.858;4.376;2022-12-29T15:24:20;8.80;99.90
39189;DHT22;24915;50.858;4.376;2022-12-29T15:26:49;8.80;99.90
39189;DHT22;24915;50.858;4.376;2022-12-29T15:29:39;8.80;99.90
39189;DHT22;24915;50.858;4.376;2022-12-29T15:34:47;8.70;99.90
39189;DHT22;24915;50.858;4.376;2022-12-29T15:37:23;8.70;99.90
39189;DHT22;24915;50.858;4.376;2022-12-29T15:39:50;8.60;99.90
39189;DHT22;24915;50.858;4.376;2022-12-29T15:42:58;8.60;99.90
39189;DHT22;24915;50.858;4.376;2022-12-29T15:45:05;8.60;99.90
39189;DHT22;24915;50.858;4.376;2022-12-29T15:47:32;8.60;99.90
39189;DHT22;24915;50.858;4.376;2022-12-29T15:52:46;8.60;99.90
39189;DHT22;24915;50.858;4.376;2022-12-29T15:55:31;8.60;99.90
39189;DHT22;24915;50.858;4.376;2022-12-29T15:58:00;8.60;99.90
39189;DHT22;24915;50.858;4.376;2022-12-29T16:00:30;8.70;99.90
39189;DHT22;24915;50.858;4.376;2022-12-29T16:02:59;8.70;99.90
39189;DHT22;24915;50.858;4.376;2022-12-29T16:05:35;8.70;99.90
39189;DHT22;24915;50.858;4.376;2022-12-29T16:08:01;8.60;99.90
39189;DHT22;24915;50.858;4.376;2022-12-29T16:10:37;8.60;99.90
39189;DHT22;24915;50.858;4.376;2022-12-29T16:13:20;8.50;99.90
39189;DHT22;24915;50.858;4.376;2022-12-29T16:15:54;8.50;99.90
39189;DHT22;24915;50.858;4.376;2022-12-29T16:18:25;8.50;99.90
39189;DHT22;24915;50.858;4.376;2022-12-29T16:20:52;8.50;99.90
39189;DHT22;24915;50.858;4.376;2022-12-29T16:23:22;8.50;99.90
39189;DHT22;24915;50.858;4.376;2022-12-29T16:25:48;8.50;99.90
39189;DHT22;24915;50.858;4.376;2022-12-29T16:28:19;8.50;99.90
39189;DHT22;24915;50.858;4.376;2022-12-29T16:30:45;8.50;99.90
39189;DHT22;24915;50.858;4.376;2022-12-29T16:41:43;8.50;99.90
39189;DHT22;24915;50.858;4.376;2022-12-29T16:44:29;8.50;99.90
39189;DHT22;24915;50.858;4.376;2022-12-29T16:47:21;8.50;99.90
39189;DHT22;24915;50.858;4.376;2022-12-29T16:49:52;8.50;99.90
39189;DHT22;24915;50.858;4.376;2022-12-29T16:52:28;8.50;99.90
39189;DHT22;24915;50.858;4.376;2022-12-29T16:54:58;8.50;99.90
39189;DHT22;24915;50.858;4.376;2022-12-29T16:57:29;8.50;99.90
39189;DHT22;24915;50.858;4.376;2022-12-29T17:00:07;8.60;99.90
39189;DHT22;24915;50.858;4.376;2022-12-29T17:02:34;8.60;99.90
39189;DHT22;24915;50.858;4.376;2022-12-29T17:05:14;8.60;99.90
39189;DHT22;24915;50.858;4.376;2022-12-29T17:07:40;8.60;99.90
39189;DHT22;24915;50.858;4.376;2022-12-29T17:10:06;8.60;99.90
39189;DHT22;24915;50.858;4.376;2022-12-29T17:12:33;8.60;99.90
39189;DHT22;24915;50.858;4.376;2022-12-29T17:17:43;8.60;99.90
39189;DHT22;24915;50.858;4.376;2022-12-29T17:20:22;8.60;99.90
39189;DHT22;24915;50.858;4.376;2022-12-29T17:22:48;8.60;99.90
39189;DHT22;24915;50.858;4.376;2022-12-29T17:25:21;8.60;99.90
39189;DHT22;24915;50.858;4.376;2022-12-29T17:27:56;8.60;99.90
39189;DHT22;24915;50.858;4.376;2022-12-29T17:30:23;8.60;99.90
39189;DHT22;24915;50.858;4.376;2022-12-29T17:33:00;8.60;99.90
39189;DHT22;24915;50.858;4.376;2022-12-29T17:35:26;8.60;99.90
39189;DHT22;24915;50.858;4.376;2022-12-29T17:37:53;8.60;99.90
39189;DHT22;24915;50.858;4.376;2022-12-29T17:40:25;8.50;99.90
39189;DHT22;24915;50.858;4.376;2022-12-29T17:42:54;8.50;99.90
39189;DHT22;24915;50.858;4.376;2022-12-29T17:45:28;8.60;99.90
39189;DHT22;24915;50.858;4.376;2022-12-29T17:47:55;8.60;99.90
39189;DHT22;24915;50.858;4.376;2022-12-29T17:50:24;8.60;99.90
39189;DHT22;24915;50.858;4.376;2022-12-29T17:52:56;8.60;99.90
39189;DHT22;24915;50.858;4.376;2022-12-29T17:55:23;8.60;99.90
39189;DHT22;24915;50.858;4.376;2022-12-29T17:57:50;8.60;99.90
39189;DHT22;24915;50.858;4.376;2022-12-29T18:00:27;8.60;99.90
39189;DHT22;24915;50.858;4.376;2022-12-29T18:02:54;8.60;99.90
39189;DHT22;24915;50.858;4.376;2022-12-29T18:05:26;8.60;99.90
39189;DHT22;24915;50.858;4.376;2022-12-29T18:07:54;8.50;99.90
39189;DHT22;24915;50.858;4.376;2022-12-29T18:10:21;8.50;99.90
39189;DHT22;24915;50.858;4.376;2022-12-29T18:12:48;8.50;99.90
39189;DHT22;24915;50.858;4.376;2022-12-29T18:15:24;8.40;99.90
39189;DHT22;24915;50.858;4.376;2022-12-29T18:17:57;8.40;99.90
39189;DHT22;24915;50.858;4.376;2022-12-29T18:20:23;8.40;99.90
39189;DHT22;24915;50.858;4.376;2022-12-29T18:22:49;8.40;99.90
39189;DHT22;24915;50.858;4.376;2022-12-29T18:25:22;8.30;99.90